Weather at Mainz-Finthen Airfield

Public forecast

Using degrees Celsius for public forecast. Weather courtesy of forecast.io.

Closest aviation weather report (METAR) to Mainz-Finthen Airfield

Report is more than 2 hours old.

Closest report is Wiesbaden Army Airfield, 8.5 nm (15.7 km) NE.

2024/06/18 18:55 (retrieved 2 hours ago)

ETOU 181855Z VRB06KT 9999 SCT040 OVC060 25/18 A2983 RMK WND DATA ESTMD ALSTG ESTMD SLPNO RVRNO

Closest aviation forecast (TAF) to Mainz-Finthen Airfield

Closest forecast is Wiesbaden Army Airfield, 8.5 nm (15.7 km) NE.

2024/06/18 19:55 Ammendment (retrieved 1 hour ago)

TAF AMD ETOU 181949Z 1819/1918 VRB06KT 9999 SCT040 BKN080 QNH2985INS TEMPO 1819/1820 20010G15KT 9000 VCTS -RA BKN040CB OVC050 BECMG 1820/1821 21006KT 8000 -SHRA SCT030 OVC050 QNH2987INS BECMG 1823/1824 29006KT 9999 NSW SCT030 OVC050 QNH2989INS BECMG 1905/1906 29006KT 8000 -RA BKN010 BKN020 OVC040 QNH2992INS BECMG 1908/1909 VRB06KT 9999 NSW BKN020 OVC030 QNH2997INS TX25/1819Z TN13/1904Z LAST NO AMDS AFT 1819 NEXT 1905